Chase, Canada
Current Conditions -  °F | °C
As of 6:00 AM on Thursday 23 Oct 2014 (Local Time) from CYKA Reporting Station
Scattered Clouds Scattered Clouds  
Wind Chill: 52°   Ceiling: Unl
Heat Index: 52°   Visibility: 40mi
Dew Point: 36°   Wind: 13mph
Humidity: 54%   Direction: NA
Pressure: 29.62"   Gusts: NA
Location:  50.82°N, 119.68°W
Report Text: CYKA 231300Z VRB11KT 40SM FEW060 SCT120 11/02 A2962 RMK SC2AC2 SLP033 DENSITY ALT 1200FT
Loading
Personal Weather Stations






























Interactive Weather Map New forecast layout! Learn more

10-Day Weather Forecast

Advertisements
Track Severe Weather on mobile